createdAt,value
2023-03-13T00:01:18.572Z,9.60
2023-03-13T00:03:46.304Z,9.60
2023-03-13T00:06:14.087Z,9.60
2023-03-13T00:08:41.327Z,9.60
2023-03-13T00:11:10.481Z,9.60
2023-03-13T00:13:38.102Z,9.60
2023-03-13T00:16:10.937Z,9.60
2023-03-13T00:18:38.442Z,9.60
2023-03-13T00:21:07.964Z,9.70
2023-03-13T00:23:37.471Z,9.70
2023-03-13T00:26:07.509Z,9.70
2023-03-13T00:28:36.119Z,9.70
2023-03-13T00:31:07.976Z,9.60
2023-03-13T00:33:41.372Z,9.60
2023-03-13T00:36:13.651Z,9.60
2023-03-13T00:38:41.241Z,9.60
2023-03-13T00:41:12.022Z,9.60
2023-03-13T00:43:40.687Z,9.60
2023-03-13T00:46:08.433Z,9.60
2023-03-13T00:48:36.135Z,9.60
2023-03-13T00:51:04.525Z,9.70
2023-03-13T00:53:32.186Z,9.80
2023-03-13T00:56:09.731Z,9.80
2023-03-13T00:58:39.627Z,9.90
2023-03-13T01:01:12.388Z,10.00
2023-03-13T01:03:41.377Z,9.90
2023-03-13T01:06:11.736Z,10.00
2023-03-13T01:08:39.014Z,10.00
2023-03-13T01:11:12.868Z,10.10
2023-03-13T01:13:40.306Z,10.20
2023-03-13T01:16:16.701Z,10.20
2023-03-13T01:18:46.520Z,10.20
2023-03-13T01:21:15.500Z,10.20
2023-03-13T01:23:43.143Z,10.20
2023-03-13T01:26:10.350Z,10.30
2023-03-13T01:28:37.891Z,10.30
2023-03-13T01:31:19.718Z,10.30
2023-03-13T01:33:48.626Z,10.30
2023-03-13T01:36:16.508Z,10.30
2023-03-13T01:38:43.869Z,10.30
2023-03-13T01:41:12.481Z,10.30
2023-03-13T01:43:39.581Z,10.30
2023-03-13T01:46:18.588Z,10.30
2023-03-13T01:48:52.122Z,10.40
2023-03-13T01:51:41.002Z,10.50
2023-03-13T01:54:33.088Z,10.50
2023-03-13T01:57:02.312Z,10.50
2023-03-13T01:59:35.163Z,10.50
2023-03-13T02:02:04.725Z,10.60
2023-03-13T02:04:38.009Z,10.60
2023-03-13T02:07:14.760Z,10.50
2023-03-13T02:09:43.567Z,10.50
2023-03-13T02:12:14.910Z,10.50
2023-03-13T02:14:45.197Z,10.50
2023-03-13T02:17:14.107Z,10.50
2023-03-13T02:19:45.129Z,10.50
2023-03-13T02:22:54.422Z,10.50
2023-03-13T02:25:24.398Z,10.60
2023-03-13T02:27:55.120Z,10.60
2023-03-13T02:30:22.376Z,10.60
2023-03-13T02:32:50.400Z,10.60
2023-03-13T02:35:19.887Z,10.60
2023-03-13T02:38:00.616Z,10.70
2023-03-13T02:40:33.621Z,10.70
2023-03-13T02:43:02.999Z,10.80
2023-03-13T02:45:30.010Z,10.80
2023-03-13T02:47:57.051Z,10.80
2023-03-13T02:50:24.277Z,10.70
2023-03-13T02:52:56.401Z,10.80
2023-03-13T02:55:38.743Z,10.90
2023-03-13T02:58:05.680Z,10.90
2023-03-13T03:00:32.725Z,11.00
2023-03-13T03:03:00.129Z,11.10
2023-03-13T03:05:27.276Z,11.10
2023-03-13T03:07:54.239Z,11.10
2023-03-13T03:10:21.247Z,11.10
2023-03-13T03:12:48.868Z,11.10
2023-03-13T03:15:15.950Z,11.10
2023-03-13T03:17:42.983Z,11.10
2023-03-13T03:20:12.187Z,11.10
2023-03-13T03:22:40.886Z,11.10
2023-03-13T03:25:09.590Z,11.20
2023-03-13T03:27:37.427Z,11.20
2023-03-13T03:30:05.432Z,11.30
2023-03-13T03:32:32.934Z,11.30
2023-03-13T03:34:59.932Z,11.20
2023-03-13T03:37:26.948Z,11.30
2023-03-13T03:39:54.003Z,11.30
2023-03-13T03:42:20.808Z,11.30
2023-03-13T03:44:47.742Z,11.40
2023-03-13T03:47:15.094Z,11.40
2023-03-13T03:49:42.195Z,11.30
2023-03-13T03:52:09.677Z,11.30
2023-03-13T03:54:37.194Z,11.30
2023-03-13T03:57:04.748Z,11.30
2023-03-13T03:59:31.863Z,11.30
2023-03-13T04:01:59.225Z,11.40
2023-03-13T04:04:27.526Z,11.50
2023-03-13T04:06:54.717Z,11.50
2023-03-13T04:09:22.638Z,11.40
2023-03-13T04:11:49.939Z,11.40
2023-03-13T04:14:17.068Z,11.50
2023-03-13T04:16:44.097Z,11.50
2023-03-13T04:19:11.401Z,11.50
2023-03-13T04:21:39.657Z,11.40
2023-03-13T04:24:06.979Z,11.50
2023-03-13T04:26:34.148Z,11.40
2023-03-13T04:29:01.140Z,11.50
2023-03-13T04:31:28.694Z,11.60
2023-03-13T04:33:55.793Z,11.60
2023-03-13T04:36:22.816Z,11.50
2023-03-13T04:38:49.867Z,11.60
2023-03-13T04:41:16.885Z,11.60
2023-03-13T04:43:43.941Z,11.60
2023-03-13T04:46:11.065Z,11.60
2023-03-13T04:48:37.962Z,11.60
2023-03-13T04:51:05.164Z,11.60
2023-03-13T04:53:32.323Z,11.60
2023-03-13T04:55:59.370Z,11.60
2023-03-13T04:58:26.224Z,11.60
2023-03-13T05:00:53.945Z,11.60
2023-03-13T05:03:20.949Z,11.60
2023-03-13T05:05:48.036Z,11.60
2023-03-13T05:08:15.444Z,11.60
2023-03-13T05:10:43.087Z,11.60
2023-03-13T05:13:10.366Z,11.60
2023-03-13T05:15:37.399Z,11.60
2023-03-13T05:18:04.500Z,11.70
2023-03-13T05:20:31.472Z,11.70
2023-03-13T05:22:58.477Z,11.80
2023-03-13T05:25:25.549Z,11.80
2023-03-13T05:27:52.771Z,11.70
2023-03-13T05:30:20.054Z,11.70
2023-03-13T05:32:47.073Z,11.70
2023-03-13T05:35:14.286Z,11.60
2023-03-13T05:37:42.669Z,11.70
2023-03-13T05:40:10.464Z,11.60
2023-03-13T05:42:37.496Z,11.60
2023-03-13T05:45:05.026Z,11.70
2023-03-13T05:47:32.019Z,11.70
2023-03-13T05:49:59.452Z,11.80
2023-03-13T05:52:26.576Z,11.80
2023-03-13T05:54:53.533Z,11.90
2023-03-13T05:57:20.676Z,11.90
2023-03-13T05:59:47.703Z,12.00
2023-03-13T06:02:14.830Z,12.00
2023-03-13T06:04:41.983Z,12.00
2023-03-13T06:07:09.328Z,12.00
2023-03-13T06:09:36.440Z,12.10
2023-03-13T06:12:03.743Z,12.10
2023-03-13T06:14:30.811Z,12.10
2023-03-13T06:16:58.341Z,12.10
2023-03-13T06:19:25.651Z,12.10
2023-03-13T06:21:53.089Z,12.10
2023-03-13T06:24:20.669Z,12.10
2023-03-13T06:26:50.997Z,12.20
2023-03-13T06:29:18.342Z,12.20
2023-03-13T06:31:45.498Z,12.20
2023-03-13T06:34:13.724Z,12.20
2023-03-13T06:36:40.940Z,12.20
2023-03-13T06:39:09.393Z,12.30
2023-03-13T06:41:36.632Z,12.30
2023-03-13T06:44:04.013Z,12.30
2023-03-13T06:46:31.459Z,12.40
2023-03-13T06:48:59.489Z,12.40
2023-03-13T06:51:26.570Z,12.50
2023-03-13T06:53:53.607Z,12.50
2023-03-13T06:56:21.797Z,12.50
2023-03-13T06:58:49.528Z,12.50
2023-03-13T07:01:17.571Z,12.50
2023-03-13T07:03:45.151Z,12.50
2023-03-13T07:06:12.688Z,12.50
2023-03-13T07:08:39.992Z,12.40
2023-03-13T07:11:09.843Z,12.50
2023-03-13T07:13:37.356Z,12.50
2023-03-13T07:16:09.915Z,12.50
2023-03-13T07:18:38.295Z,12.50
2023-03-13T07:21:05.748Z,12.50
2023-03-13T07:23:34.308Z,12.50
2023-03-13T07:26:04.319Z,12.50
2023-03-13T07:28:31.951Z,12.60
2023-03-13T07:31:08.159Z,12.60
2023-03-13T07:33:35.369Z,12.60
2023-03-13T07:36:02.549Z,12.70
2023-03-13T07:38:29.610Z,12.80
2023-03-13T07:40:58.058Z,12.80
2023-03-13T07:43:26.087Z,12.80
2023-03-13T07:46:02.547Z,12.90
2023-03-13T07:48:31.876Z,13.00
2023-03-13T07:50:59.302Z,13.10
2023-03-13T07:53:27.369Z,13.10
2023-03-13T07:56:01.749Z,13.20
2023-03-13T07:58:31.261Z,13.20
2023-03-13T08:00:58.762Z,13.30
2023-03-13T08:03:27.138Z,13.30
2023-03-13T08:06:02.933Z,13.30
2023-03-13T08:08:30.364Z,13.50
2023-03-13T08:11:05.230Z,13.50
2023-03-13T08:13:33.484Z,13.50
2023-03-13T08:16:05.263Z,13.50
2023-03-13T08:18:35.236Z,13.50
2023-03-13T08:21:07.101Z,13.50
2023-03-13T08:23:34.742Z,13.50
2023-03-13T08:26:06.048Z,13.60
2023-03-13T08:28:33.281Z,13.60
2023-03-13T08:31:10.331Z,13.60
2023-03-13T08:33:37.478Z,13.70
2023-03-13T08:36:17.848Z,13.80
2023-03-13T08:38:46.657Z,13.90
2023-03-13T08:41:18.731Z,14.10
2023-03-13T08:43:46.228Z,14.10
2023-03-13T08:46:14.635Z,14.10
2023-03-13T08:48:42.040Z,14.10
2023-03-13T08:51:14.148Z,14.20
2023-03-13T08:53:43.606Z,14.10
2023-03-13T08:56:15.252Z,14.20
2023-03-13T08:58:42.579Z,14.20
2023-03-13T09:01:12.115Z,14.20
2023-03-13T09:03:40.617Z,14.30
2023-03-13T09:06:08.798Z,14.40
2023-03-13T09:08:36.260Z,14.50
2023-03-13T09:11:09.839Z,14.50
2023-03-13T09:13:39.919Z,14.50
2023-03-13T09:16:12.643Z,14.60
2023-03-13T09:18:40.352Z,14.70
2023-03-13T09:21:14.590Z,14.80
2023-03-13T09:23:41.467Z,14.90
2023-03-13T09:26:09.360Z,14.90
2023-03-13T09:28:36.326Z,15.10
2023-03-13T09:31:14.640Z,15.40
2023-03-13T09:33:43.424Z,15.70
2023-03-13T09:36:11.411Z,15.90
2023-03-13T09:38:39.344Z,16.20
2023-03-13T09:41:38.845Z,16.50
2023-03-13T09:44:27.068Z,16.70
2023-03-13T09:46:53.973Z,16.80
2023-03-13T09:49:42.366Z,16.80
2023-03-13T09:52:27.224Z,16.60
2023-03-13T09:54:57.700Z,16.40
2023-03-13T09:57:49.155Z,16.40
2023-03-13T10:00:25.954Z,16.30
2023-03-13T10:03:16.408Z,16.20
2023-03-13T10:05:53.317Z,16.20
2023-03-13T10:08:24.256Z,16.30
2023-03-13T10:11:03.422Z,16.40
2023-03-13T10:14:05.141Z,16.60
2023-03-13T10:16:48.998Z,16.90
2023-03-13T10:19:35.290Z,16.90
2023-03-13T10:22:08.606Z,17.00
2023-03-13T10:24:48.554Z,17.20
2023-03-13T10:27:16.322Z,17.50
2023-03-13T10:29:43.628Z,17.80
2023-03-13T10:32:14.651Z,18.00
2023-03-13T10:35:03.318Z,18.20
2023-03-13T10:37:33.483Z,18.40
2023-03-13T10:40:26.331Z,18.60
2023-03-13T10:43:00.068Z,18.90
2023-03-13T10:45:30.906Z,19.20
2023-03-13T10:48:11.734Z,19.20
2023-03-13T10:50:43.833Z,19.20
2023-03-13T10:53:28.905Z,19.20
2023-03-13T10:56:00.546Z,19.50
2023-03-13T10:58:53.904Z,19.70
2023-03-13T11:01:25.032Z,19.70
2023-03-13T11:03:54.843Z,19.80
2023-03-13T11:06:33.062Z,20.00
2023-03-13T11:09:17.137Z,19.90
2023-03-13T11:11:49.657Z,19.80
2023-03-13T11:14:24.103Z,19.60
2023-03-13T11:17:00.113Z,19.40
2023-03-13T11:19:42.472Z,19.30
2023-03-13T11:22:24.413Z,19.30
2023-03-13T11:25:03.686Z,19.30
2023-03-13T11:27:44.662Z,19.40
2023-03-13T11:30:36.575Z,19.20
2023-03-13T11:33:09.103Z,19.20
2023-03-13T11:35:49.527Z,19.30
2023-03-13T11:38:27.720Z,19.20
2023-03-13T11:41:03.144Z,19.20
2023-03-13T11:43:42.101Z,19.30
2023-03-13T11:46:41.390Z,19.50
2023-03-13T11:49:30.230Z,19.90
2023-03-13T11:52:22.309Z,20.40
2023-03-13T11:55:16.637Z,20.50
2023-03-13T11:58:23.635Z,20.70
2023-03-13T12:01:09.461Z,20.80
2023-03-13T12:03:57.925Z,21.00
2023-03-13T12:06:38.825Z,21.40
2023-03-13T12:09:16.092Z,21.60
2023-03-13T12:11:54.698Z,21.60
2023-03-13T12:14:52.138Z,21.50
2023-03-13T12:17:37.116Z,21.60
2023-03-13T12:20:22.005Z,21.80
2023-03-13T12:23:04.567Z,21.60
2023-03-13T12:25:44.978Z,21.60
2023-03-13T12:28:28.417Z,21.90
2023-03-13T12:31:19.817Z,22.20
2023-03-13T12:34:13.626Z,22.20
2023-03-13T12:37:06.975Z,22.10
2023-03-13T12:39:41.609Z,22.10
2023-03-13T12:42:15.562Z,22.30
2023-03-13T12:44:42.946Z,22.50
2023-03-13T12:47:32.616Z,22.60
2023-03-13T12:50:06.107Z,22.70
2023-03-13T12:52:48.996Z,22.80
2023-03-13T12:55:44.186Z,22.90
2023-03-13T12:58:39.651Z,22.90
2023-03-13T13:01:10.700Z,22.70
2023-03-13T13:04:00.804Z,22.50
2023-03-13T13:06:52.710Z,22.50
2023-03-13T13:09:27.137Z,22.60
2023-03-13T13:12:23.770Z,22.60
2023-03-13T13:14:50.700Z,22.70
2023-03-13T13:17:27.336Z,22.70
2023-03-13T13:19:56.286Z,22.70
2023-03-13T13:22:38.139Z,22.80
2023-03-13T13:25:08.133Z,22.80
2023-03-13T13:27:35.440Z,22.90
2023-03-13T13:30:30.747Z,22.90
2023-03-13T13:33:30.903Z,22.80
2023-03-13T13:36:09.808Z,22.50
2023-03-13T13:38:40.555Z,22.50
2023-03-13T13:41:10.250Z,22.40
2023-03-13T13:43:39.281Z,22.40
2023-03-13T13:46:29.168Z,22.30
2023-03-13T13:49:05.761Z,22.10
2023-03-13T13:51:34.732Z,22.00
2023-03-13T13:54:04.028Z,21.90
2023-03-13T13:56:45.571Z,21.90
2023-03-13T13:59:21.607Z,22.10
2023-03-13T14:01:50.420Z,22.30
2023-03-13T14:04:33.599Z,22.40
2023-03-13T14:07:04.947Z,22.40
2023-03-13T14:09:53.760Z,22.50
2023-03-13T14:12:31.533Z,22.60
2023-03-13T14:15:18.133Z,22.60
2023-03-13T14:17:53.859Z,22.60
2023-03-13T14:20:29.229Z,22.50
2023-03-13T14:23:01.579Z,22.30
2023-03-13T14:25:42.656Z,22.20
2023-03-13T14:28:18.405Z,22.00
2023-03-13T14:30:47.047Z,22.00
2023-03-13T14:33:14.850Z,21.80
2023-03-13T14:35:42.516Z,21.90
2023-03-13T14:38:26.652Z,21.80
2023-03-13T14:40:58.137Z,21.80
2023-03-13T14:43:36.058Z,21.80
2023-03-13T14:46:21.813Z,21.80
2023-03-13T14:48:48.748Z,21.80
2023-03-13T14:51:25.513Z,22.00
2023-03-13T14:54:00.513Z,22.20
2023-03-13T14:56:35.492Z,22.30
2023-03-13T14:59:25.974Z,22.30
2023-03-13T15:02:24.392Z,22.20
2023-03-13T15:05:07.286Z,22.00
2023-03-13T15:07:54.066Z,21.80
2023-03-13T15:10:24.346Z,21.70
2023-03-13T15:12:51.990Z,21.60
2023-03-13T15:15:19.032Z,21.50
2023-03-13T15:17:45.966Z,21.50
2023-03-13T15:20:13.931Z,21.50
2023-03-13T15:22:43.326Z,21.50
2023-03-13T15:25:22.033Z,21.40
2023-03-13T15:27:50.213Z,21.30
2023-03-13T15:30:19.570Z,21.30
2023-03-13T15:32:47.406Z,21.20
2023-03-13T15:35:32.010Z,21.20
2023-03-13T15:38:00.156Z,21.10
2023-03-13T15:40:28.309Z,21.20
2023-03-13T15:42:55.893Z,21.10
2023-03-13T15:45:23.062Z,21.00
2023-03-13T15:47:50.100Z,21.00
2023-03-13T15:50:19.693Z,21.10
2023-03-13T15:52:46.967Z,21.10
2023-03-13T15:55:15.817Z,21.10
2023-03-13T15:57:47.076Z,21.00
2023-03-13T16:00:22.044Z,20.90
2023-03-13T16:02:49.317Z,20.70
2023-03-13T16:05:16.964Z,20.50
2023-03-13T16:07:44.383Z,20.40
2023-03-13T16:10:24.966Z,20.40
2023-03-13T16:12:53.084Z,20.60
2023-03-13T16:15:20.508Z,20.80
2023-03-13T16:17:47.584Z,20.90
2023-03-13T16:20:17.401Z,21.10
2023-03-13T16:22:44.951Z,21.20
2023-03-13T16:25:13.610Z,21.20
2023-03-13T16:27:41.946Z,21.30
2023-03-13T16:30:32.324Z,21.20
2023-03-13T16:33:00.765Z,21.10
2023-03-13T16:35:29.045Z,20.90
2023-03-13T16:37:57.741Z,20.80
2023-03-13T16:40:30.809Z,20.60
2023-03-13T16:42:58.218Z,20.40
2023-03-13T16:45:25.456Z,20.20
2023-03-13T16:47:53.660Z,20.10
2023-03-13T16:50:34.150Z,20.00
2023-03-13T16:53:01.828Z,19.80
2023-03-13T16:55:30.381Z,19.80
2023-03-13T16:58:00.705Z,19.60
2023-03-13T17:00:30.440Z,19.60
2023-03-13T17:02:58.230Z,19.60
2023-03-13T17:05:27.424Z,19.40
2023-03-13T17:07:54.712Z,19.30
2023-03-13T17:10:23.286Z,19.20
2023-03-13T17:12:50.468Z,18.90
2023-03-13T17:15:18.460Z,18.70
2023-03-13T17:17:51.524Z,18.60
2023-03-13T17:20:27.137Z,18.60
2023-03-13T17:22:56.264Z,18.50
2023-03-13T17:25:23.635Z,18.50
2023-03-13T17:27:50.655Z,18.50
2023-03-13T17:30:19.666Z,18.40
2023-03-13T17:32:48.109Z,18.40
2023-03-13T17:35:15.393Z,18.30
2023-03-13T17:37:44.477Z,18.20
2023-03-13T17:40:15.917Z,18.20
2023-03-13T17:42:43.110Z,18.10
2023-03-13T17:45:10.895Z,18.20
2023-03-13T17:47:38.153Z,18.10
2023-03-13T17:50:21.851Z,18.00
2023-03-13T17:52:48.925Z,17.80
2023-03-13T17:55:16.032Z,17.80
2023-03-13T17:57:43.950Z,17.70
2023-03-13T18:00:23.939Z,17.70
2023-03-13T18:02:52.170Z,17.60
2023-03-13T18:05:20.064Z,17.60
2023-03-13T18:07:48.357Z,17.60
2023-03-13T18:10:24.521Z,17.50
2023-03-13T18:12:51.865Z,17.40
2023-03-13T18:15:20.485Z,17.40
2023-03-13T18:17:47.972Z,17.20
2023-03-13T18:20:22.058Z,17.10
2023-03-13T18:22:49.976Z,16.90
2023-03-13T18:25:17.299Z,16.90
2023-03-13T18:27:44.480Z,16.80
2023-03-13T18:30:17.894Z,16.80
2023-03-13T18:32:45.717Z,16.70
2023-03-13T18:35:13.818Z,16.70
2023-03-13T18:37:42.925Z,16.60
2023-03-13T18:40:19.579Z,16.70
2023-03-13T18:42:46.486Z,16.70
2023-03-13T18:45:21.588Z,16.70
2023-03-13T18:47:48.704Z,16.60
2023-03-13T18:50:27.264Z,16.60
2023-03-13T18:52:55.933Z,16.50
2023-03-13T18:55:24.990Z,16.30
2023-03-13T18:57:53.546Z,16.10
2023-03-13T19:00:26.210Z,15.80
2023-03-13T19:02:53.462Z,15.50
2023-03-13T19:05:20.911Z,15.40
2023-03-13T19:07:48.258Z,15.20
2023-03-13T19:10:31.088Z,15.10
2023-03-13T19:12:58.542Z,15.00
2023-03-13T19:15:29.446Z,14.90
2023-03-13T19:18:01.604Z,14.80
2023-03-13T19:20:30.216Z,14.80
2023-03-13T19:23:00.496Z,14.70
2023-03-13T19:25:27.708Z,14.60
2023-03-13T19:27:54.967Z,14.20
2023-03-13T19:30:24.343Z,14.10
2023-03-13T19:32:52.366Z,13.90
2023-03-13T19:35:21.844Z,13.90
2023-03-13T19:37:49.361Z,14.00
2023-03-13T19:40:25.821Z,14.00
2023-03-13T19:42:53.035Z,14.20
2023-03-13T19:45:21.911Z,14.20
2023-03-13T19:47:49.233Z,14.30
2023-03-13T19:50:19.433Z,14.20
2023-03-13T19:52:46.591Z,14.10
2023-03-13T19:55:14.053Z,13.90
2023-03-13T19:57:41.693Z,13.80
2023-03-13T20:00:14.114Z,13.80
2023-03-13T20:02:41.750Z,13.80
2023-03-13T20:05:10.396Z,13.80
2023-03-13T20:07:37.939Z,13.40
2023-03-13T20:10:05.637Z,13.20
2023-03-13T20:12:34.187Z,13.10
2023-03-13T20:15:01.343Z,13.00
2023-03-13T20:17:29.096Z,13.00
2023-03-13T20:19:56.824Z,12.90
2023-03-13T20:22:24.613Z,12.90
2023-03-13T20:24:53.583Z,12.80
2023-03-13T20:27:20.877Z,12.80
2023-03-13T20:29:47.907Z,12.80
2023-03-13T20:32:15.176Z,12.70
2023-03-13T20:34:42.544Z,12.50
2023-03-13T20:37:09.683Z,12.30
2023-03-13T20:39:36.719Z,12.20
2023-03-13T20:42:04.002Z,12.00
2023-03-13T20:44:31.181Z,11.80
2023-03-13T20:46:58.074Z,11.70
2023-03-13T20:49:25.246Z,11.50
2023-03-13T20:51:52.140Z,11.40
2023-03-13T20:54:19.291Z,11.30
2023-03-13T20:56:46.288Z,11.30
2023-03-13T20:59:13.286Z,11.20
2023-03-13T21:01:40.311Z,11.10
2023-03-13T21:04:07.335Z,11.00
2023-03-13T21:06:34.648Z,10.90
2023-03-13T21:09:01.908Z,10.90
2023-03-13T21:11:28.851Z,10.80
2023-03-13T21:13:56.593Z,10.80
2023-03-13T21:16:23.702Z,10.70
2023-03-13T21:18:51.479Z,10.60
2023-03-13T21:21:22.551Z,10.40
2023-03-13T21:23:53.335Z,10.30
2023-03-13T21:26:20.772Z,10.30
2023-03-13T21:28:48.023Z,10.40
2023-03-13T21:31:18.045Z,10.40
2023-03-13T21:33:46.437Z,10.40
2023-03-13T21:36:15.720Z,10.30
2023-03-13T21:38:43.117Z,10.30
2023-03-13T21:41:12.474Z,10.40
2023-03-13T21:43:44.115Z,10.30
2023-03-13T21:46:13.189Z,10.20
2023-03-13T21:48:41.203Z,10.30
2023-03-13T21:51:09.164Z,10.20
2023-03-13T21:53:37.431Z,10.10
2023-03-13T21:56:05.170Z,10.20
2023-03-13T21:58:32.248Z,10.20
2023-03-13T22:00:59.725Z,10.30
2023-03-13T22:03:27.113Z,10.30
2023-03-13T22:05:54.268Z,10.40
2023-03-13T22:08:21.377Z,10.40
2023-03-13T22:10:50.101Z,10.40
2023-03-13T22:13:17.817Z,10.50
2023-03-13T22:15:46.721Z,10.50
2023-03-13T22:18:15.762Z,10.50
2023-03-13T22:20:44.641Z,10.50
2023-03-13T22:23:13.125Z,10.50
2023-03-13T22:25:42.596Z,10.50
2023-03-13T22:28:10.643Z,10.50
2023-03-13T22:30:39.059Z,10.40
2023-03-13T22:33:07.210Z,10.40
2023-03-13T22:35:35.225Z,10.50
2023-03-13T22:38:02.471Z,10.40
2023-03-13T22:40:29.457Z,10.60
2023-03-13T22:42:56.590Z,10.60
2023-03-13T22:45:23.715Z,10.50
2023-03-13T22:47:51.284Z,10.50
2023-03-13T22:50:25.560Z,10.40
2023-03-13T22:52:53.184Z,10.50
2023-03-13T22:55:20.088Z,10.40
2023-03-13T22:57:47.001Z,10.40
2023-03-13T23:00:14.564Z,10.30
2023-03-13T23:02:41.970Z,10.20
2023-03-13T23:05:09.762Z,10.00
2023-03-13T23:07:40.422Z,10.10
2023-03-13T23:10:09.517Z,10.10
2023-03-13T23:12:36.946Z,10.20
2023-03-13T23:15:05.126Z,10.20
2023-03-13T23:17:34.278Z,10.30
2023-03-13T23:20:10.086Z,10.30
2023-03-13T23:22:37.834Z,10.20
2023-03-13T23:25:06.188Z,10.10
2023-03-13T23:27:33.408Z,10.10
2023-03-13T23:30:01.904Z,10.20
2023-03-13T23:32:29.242Z,10.20
2023-03-13T23:34:58.554Z,10.00
2023-03-13T23:37:25.467Z,10.00
2023-03-13T23:39:52.415Z,9.90
2023-03-13T23:42:19.414Z,10.00
2023-03-13T23:44:46.384Z,9.90
2023-03-13T23:47:13.926Z,9.90
2023-03-13T23:49:41.025Z,9.90
2023-03-13T23:52:08.985Z,10.00
2023-03-13T23:54:36.055Z,9.90
2023-03-13T23:57:03.065Z,10.00
2023-03-13T23:59:30.039Z,10.10
